Terminal Aerodrome Forecast
Issued by NWS

Home | Current Version | Previous Version | Text Only | Print | Product List | Glossary On
Versions: 1 2 3 4 5 6 7 8 9 10 11 12
438
FTUS46 KSEW 271138
TAFBFI
TAF
KBFI 271138Z 2712/2812 15006KT P6SM SCT250
     FM271400 18010KT P6SM OVC016
     FM271800 18010KT P6SM BKN025
     FM272000 18008KT P6SM SCT035
     FM280400 16008KT P6SM BKN045
     FM280900 16006KT P6SM OVC020=

USA.gov is the U.S. government's official web portal to all federal, state and local government web resources and services.